Strona główna
METAR-TAF:

METAR-TAF

Lotnisko :

Port lotniczy Ambon

Ambon, Indonezja

Szerokość geograficzna: 03-42S, Długość geograficzna: 128-05E, wysokość: 12 m

METAR: brakujący

czas: 10:45 (01:45 UTC)

Prognoza

Raport powstał 2 godziny i 45 minut temu, godzina 23:00 UTC
Prognoza ważna od 31 godzina 00 UTC do 31 godzina 24 UTC
Wiatr 8 kt od południowo-południowy zachód
Widzialność 10 km lub więcej
Rozproszone chmury na wysokości 1900 ft
Stopniowe zmiany
od 31 godzina 09 UTC do 31 godzina 11 UTC
Wiatr 5 kt od północ

TAF: WAPP 302300Z 3100/3124 20008KT 9999 SCT019 BECMG 3109/3111 35005KT

Obserwacja i prognoza pogody dla ponad 4000 lotnisk (raport METAR i TAF).

Dostępne stacje oznaczono żółtymi i czerwonymi punktami na mapie.

Najedź kursorem aby zobaczyć nazwę stacji.

Kliknij aby zobaczyć obserwacje i prognozy pogody.

Aby zmienić mapę: kliknij na zielony przycisk z czarnym krzyżykiem, aby powiększyć; na zielony przycisk z myślnikiem, aby pomniejszyć; na zielone strzałki, aby przejść do map sąsiednich.


METAR-TAF: